Portada
METAR-TAF:

METAR-TAF

Aeroports :

Savonlinna, Finlàndia

latitud: 61-57N, longitud: 028-57E, altitud: 95 m

Observació

L'informe es va fer fa 20 minuts, a les 12:20 UTC
Vent 4 kt del Est, variant entre Est/Nord-Est i Sud
Temperatura 23°C
Humitat 41%
Pressió 1017 hPa
Visibilitat 10 km o més
sense núvols per sota de 1500 mi sense presència de cumulonimbus.

METAR: EFSA 211220Z AUTO 10004KT 070V180 CAVOK 23/09 Q1017

Hora: 15:40 (12:40 UTC)

Pronòstic

L'informe es va fer fa 1 hora i 14 minuts, a les 11:26 UTC
Pronòstic vàlid del 21 a les 12 UTC al 21 a les 18 UTC
Vent 3 kt del Oest
Visibilitat 10 km o més
sense núvols per sota de 1500 mi sense presència de cumulonimbus.

TAF: EFSA 211126Z 2112/2118 28003KT CAVOK

Observacions i pronòstics meteorològics de més de 4000 aeroports (METAR i TAF).

Les estacions disponibles són els punts grocs i vermells al mapa.

Posi el ratolí al punt desitjat per veure el nom de l'estació.

Feu clic per veure les observacions i els pronòstics meteorològics.

Per canviar el mapa: feu clic els botons verds amb una creu de color negre per apropar; al botó verd amb un guió per allunyar la imatge; o en les fletxes verdes per a mapes adjacents.


METAR-TAF: